createdAt,value
2018-12-31T00:01:28.942Z,8.23
2018-12-31T00:03:58.978Z,7.53
2018-12-31T00:06:28.818Z,7.43
2018-12-31T00:08:58.681Z,7.37
2018-12-31T00:11:28.594Z,7.00
2018-12-31T00:13:59.058Z,7.93
2018-12-31T00:16:28.886Z,7.10
2018-12-31T00:18:58.646Z,7.80
2018-12-31T00:21:28.612Z,7.67
2018-12-31T00:23:58.922Z,7.07
2018-12-31T00:26:28.826Z,7.00
2018-12-31T00:28:59.277Z,7.27
2018-12-31T00:31:30.621Z,6.43
2018-12-31T00:34:00.432Z,6.53
2018-12-31T00:36:30.346Z,6.80
2018-12-31T00:39:00.768Z,6.93
2018-12-31T00:41:30.623Z,7.30
2018-12-31T00:44:00.590Z,6.77
2018-12-31T00:46:30.376Z,6.43
2018-12-31T00:49:00.317Z,6.87
2018-12-31T00:51:30.516Z,6.77
2018-12-31T00:54:00.662Z,6.67
2018-12-31T00:56:30.667Z,7.07
2018-12-31T00:59:00.572Z,6.43
2018-12-31T01:01:30.935Z,6.60
2018-12-31T01:04:01.125Z,6.53
2018-12-31T01:06:31.429Z,6.97
2018-12-31T01:09:01.631Z,7.00
2018-12-31T01:11:31.651Z,6.37
2018-12-31T01:14:01.677Z,6.87
2018-12-31T01:16:31.749Z,7.00
2018-12-31T01:19:01.630Z,6.13
2018-12-31T01:21:31.977Z,6.70
2018-12-31T01:24:02.030Z,7.37
2018-12-31T01:26:32.120Z,7.00
2018-12-31T01:29:02.278Z,7.37
2018-12-31T01:31:32.120Z,6.57
2018-12-31T01:34:02.319Z,6.80
2018-12-31T01:36:32.362Z,6.87
2018-12-31T01:39:02.558Z,7.00
2018-12-31T01:41:32.400Z,6.70
2018-12-31T01:44:02.414Z,7.13
2018-12-31T01:46:32.687Z,6.90
2018-12-31T01:49:02.639Z,6.60
2018-12-31T01:51:32.517Z,6.13
2018-12-31T01:54:02.685Z,6.70
2018-12-31T01:56:32.909Z,6.77
2018-12-31T01:59:03.311Z,6.27
2018-12-31T02:01:34.539Z,6.40
2018-12-31T02:04:04.761Z,6.80
2018-12-31T02:06:34.956Z,6.80
2018-12-31T02:09:07.088Z,6.60
2018-12-31T02:11:36.946Z,6.50
2018-12-31T02:14:07.149Z,7.13
2018-12-31T02:16:37.068Z,6.47
2018-12-31T02:19:08.697Z,6.87
2018-12-31T02:21:38.710Z,6.67
2018-12-31T02:24:08.500Z,7.07
2018-12-31T02:26:38.409Z,6.80
2018-12-31T02:29:08.295Z,6.83
2018-12-31T02:31:39.360Z,7.30
2018-12-31T02:34:09.192Z,7.77
2018-12-31T02:36:39.174Z,7.30
2018-12-31T02:39:09.586Z,7.33
2018-12-31T02:41:39.620Z,8.10
2018-12-31T02:44:09.564Z,7.87
2018-12-31T02:46:39.559Z,7.23
2018-12-31T02:49:11.139Z,8.00
2018-12-31T02:51:41.140Z,7.30
2018-12-31T02:54:11.103Z,7.73
2018-12-31T02:56:41.029Z,7.07
2018-12-31T02:59:11.135Z,7.40
2018-12-31T03:01:41.041Z,7.63
2018-12-31T03:04:11.036Z,6.80
2018-12-31T03:06:40.975Z,7.07
2018-12-31T03:09:11.039Z,7.40
2018-12-31T03:11:43.144Z,7.10
2018-12-31T03:14:12.985Z,6.53
2018-12-31T03:16:42.805Z,7.00
2018-12-31T03:19:14.720Z,7.80
2018-12-31T03:21:44.472Z,6.10
2018-12-31T03:24:14.546Z,5.60
2018-12-31T03:26:44.844Z,4.87
2018-12-31T03:29:14.593Z,4.40
2018-12-31T03:31:44.317Z,5.13
2018-12-31T03:34:14.394Z,5.33
2018-12-31T03:36:44.254Z,4.77
2018-12-31T03:39:14.424Z,4.90
2018-12-31T03:41:45.769Z,4.90
2018-12-31T03:44:15.661Z,4.93
2018-12-31T03:46:45.885Z,5.10
2018-12-31T03:49:15.979Z,4.93
2018-12-31T03:51:46.151Z,4.90
2018-12-31T03:54:15.901Z,4.60
2018-12-31T03:56:47.011Z,4.53
2018-12-31T03:59:16.830Z,4.70
2018-12-31T04:01:46.824Z,3.90
2018-12-31T04:04:16.561Z,4.00
2018-12-31T04:06:46.449Z,3.80
2018-12-31T04:09:16.533Z,3.77
2018-12-31T04:11:46.696Z,3.60
2018-12-31T04:14:16.939Z,3.40
2018-12-31T04:16:46.851Z,3.60
2018-12-31T04:19:16.632Z,3.47
2018-12-31T04:21:46.566Z,3.70
2018-12-31T04:24:16.456Z,4.10
2018-12-31T04:26:46.301Z,5.13
2018-12-31T04:29:16.072Z,4.87
2018-12-31T04:31:45.964Z,5.57
2018-12-31T04:34:16.296Z,5.17
2018-12-31T04:36:46.258Z,6.50
2018-12-31T04:39:16.233Z,6.20
2018-12-31T04:41:47.269Z,6.73
2018-12-31T04:44:17.305Z,6.80
2018-12-31T04:46:47.135Z,6.83
2018-12-31T04:49:17.150Z,8.30
2018-12-31T04:51:47.025Z,8.17
2018-12-31T04:54:16.888Z,8.83
2018-12-31T04:56:46.759Z,7.60
2018-12-31T04:59:16.726Z,8.70
2018-12-31T05:01:50.616Z,8.53
2018-12-31T05:04:22.103Z,9.27
2018-12-31T05:06:52.087Z,8.57
2018-12-31T05:09:22.095Z,8.87
2018-12-31T05:11:53.729Z,9.23
2018-12-31T05:14:23.941Z,9.40
2018-12-31T05:16:53.676Z,8.63
2018-12-31T05:19:23.513Z,9.37
2018-12-31T05:21:53.345Z,9.23
2018-12-31T05:24:23.231Z,10.00
2018-12-31T05:26:53.188Z,9.80
2018-12-31T05:29:23.381Z,10.10
2018-12-31T05:31:53.649Z,9.80
2018-12-31T05:34:23.549Z,10.17
2018-12-31T05:36:53.391Z,10.27
2018-12-31T05:39:24.244Z,10.87
2018-12-31T05:41:54.441Z,10.30
2018-12-31T05:44:24.255Z,11.33
2018-12-31T05:46:54.212Z,11.60
2018-12-31T05:49:24.105Z,11.30
2018-12-31T05:51:54.336Z,11.37
2018-12-31T05:54:24.438Z,11.00
2018-12-31T05:56:55.478Z,10.97
2018-12-31T05:59:25.738Z,11.63
2018-12-31T06:01:55.612Z,12.27
2018-12-31T06:04:25.449Z,11.57
2018-12-31T06:06:55.477Z,11.53
2018-12-31T06:09:25.956Z,11.73
2018-12-31T06:11:55.671Z,11.83
2018-12-31T06:14:25.441Z,10.73
2018-12-31T06:16:55.382Z,10.70
2018-12-31T06:19:25.614Z,11.03
2018-12-31T06:21:55.460Z,11.70
2018-12-31T06:24:25.573Z,11.47
2018-12-31T06:26:55.720Z,10.33
2018-12-31T06:29:25.985Z,11.77
2018-12-31T06:31:55.724Z,11.30
2018-12-31T06:34:25.982Z,11.33
2018-12-31T06:36:56.003Z,12.17
2018-12-31T06:39:26.177Z,11.27
2018-12-31T06:41:57.726Z,12.23
2018-12-31T06:44:27.532Z,12.20
2018-12-31T06:46:57.548Z,10.47
2018-12-31T06:49:27.551Z,11.50
2018-12-31T06:51:57.493Z,10.77
2018-12-31T06:54:27.305Z,9.90
2018-12-31T06:56:57.365Z,11.00
2018-12-31T06:59:27.534Z,11.00
2018-12-31T07:01:57.473Z,11.83
2018-12-31T07:04:27.338Z,11.17
2018-12-31T07:06:57.185Z,11.53
2018-12-31T07:09:28.506Z,11.17
2018-12-31T07:11:58.288Z,10.90
2018-12-31T07:14:28.395Z,11.80
2018-12-31T07:16:58.357Z,11.77
2018-12-31T07:19:28.358Z,11.40
2018-12-31T07:21:58.216Z,11.40
2018-12-31T07:24:27.994Z,11.23
2018-12-31T07:26:57.877Z,12.33
2018-12-31T07:29:27.846Z,12.30
2018-12-31T07:31:57.633Z,13.67
2018-12-31T07:34:27.585Z,13.10
2018-12-31T07:36:57.403Z,13.00
2018-12-31T07:39:27.580Z,13.63
2018-12-31T07:41:57.784Z,13.13
2018-12-31T07:44:27.678Z,13.37
2018-12-31T07:46:57.549Z,13.60
2018-12-31T07:49:27.408Z,14.07
2018-12-31T07:51:57.617Z,16.60
2018-12-31T07:54:27.681Z,15.57
2018-12-31T07:56:58.711Z,15.43
2018-12-31T07:59:29.250Z,16.47
2018-12-31T08:01:59.143Z,17.17
2018-12-31T08:04:29.102Z,15.57
2018-12-31T08:06:59.171Z,15.97
2018-12-31T08:09:29.271Z,18.70
2018-12-31T08:11:59.273Z,18.40
2018-12-31T08:14:29.377Z,19.43
2018-12-31T08:16:59.418Z,18.80
2018-12-31T08:19:29.304Z,19.87
2018-12-31T08:21:59.254Z,21.93
2018-12-31T08:24:29.149Z,22.53
2018-12-31T08:26:59.093Z,21.93
2018-12-31T08:29:28.970Z,24.27
2018-12-31T08:31:59.161Z,23.03
2018-12-31T08:34:28.980Z,23.63
2018-12-31T08:36:58.962Z,23.23
2018-12-31T08:39:28.837Z,22.77
2018-12-31T08:41:58.793Z,22.77
2018-12-31T08:44:28.638Z,21.70
2018-12-31T08:46:58.733Z,23.80
2018-12-31T08:49:28.606Z,23.47
2018-12-31T08:51:58.633Z,23.83
2018-12-31T08:54:28.408Z,22.43
2018-12-31T08:56:58.349Z,24.47
2018-12-31T08:59:28.394Z,24.43
2018-12-31T09:01:58.168Z,23.13
2018-12-31T09:04:27.942Z,25.00
2018-12-31T09:06:57.895Z,23.47
2018-12-31T09:09:27.694Z,24.03
2018-12-31T09:11:57.590Z,23.40
2018-12-31T09:14:27.322Z,21.83
2018-12-31T09:16:57.269Z,22.50
2018-12-31T09:19:27.160Z,24.10
2018-12-31T09:21:57.544Z,23.30
2018-12-31T09:24:27.313Z,22.40
2018-12-31T09:26:58.157Z,24.00
2018-12-31T09:29:27.959Z,24.03
2018-12-31T09:31:57.936Z,24.27
2018-12-31T09:34:27.689Z,27.73
2018-12-31T09:36:57.474Z,25.40
2018-12-31T09:39:27.456Z,22.67
2018-12-31T09:41:57.486Z,25.43
2018-12-31T09:44:27.281Z,24.30
2018-12-31T09:46:57.401Z,25.27
2018-12-31T09:49:27.565Z,27.27
2018-12-31T09:51:57.582Z,26.57
2018-12-31T09:54:27.490Z,24.23
2018-12-31T09:56:57.446Z,25.00
2018-12-31T09:59:27.430Z,25.47
2018-12-31T10:01:57.570Z,26.50
2018-12-31T10:04:27.610Z,26.80
2018-12-31T10:06:57.709Z,24.97
2018-12-31T10:09:29.449Z,24.53
2018-12-31T10:11:59.358Z,24.63
2018-12-31T10:14:29.394Z,23.07
2018-12-31T10:16:59.513Z,25.43
2018-12-31T10:19:29.428Z,23.50
2018-12-31T10:21:59.292Z,24.77
2018-12-31T10:24:29.341Z,22.27
2018-12-31T10:26:59.590Z,24.07
2018-12-31T10:29:35.916Z,22.57
2018-12-31T10:32:01.228Z,23.10
2018-12-31T10:34:31.109Z,22.80
2018-12-31T10:37:01.219Z,22.40
2018-12-31T10:39:31.061Z,22.53
2018-12-31T10:42:00.803Z,25.87
2018-12-31T10:44:30.613Z,23.97
2018-12-31T10:47:00.956Z,23.47
2018-12-31T10:49:31.054Z,23.40
2018-12-31T10:52:01.009Z,23.93
2018-12-31T10:54:30.910Z,23.97
2018-12-31T10:57:00.921Z,25.00
2018-12-31T10:59:30.667Z,27.17
2018-12-31T11:02:00.808Z,26.77
2018-12-31T11:04:30.737Z,26.50
2018-12-31T11:07:00.693Z,26.40
2018-12-31T11:09:30.558Z,25.20
2018-12-31T11:12:00.333Z,26.43
2018-12-31T11:14:30.346Z,25.30
2018-12-31T11:17:00.144Z,24.77
2018-12-31T11:19:30.218Z,23.97
2018-12-31T11:22:00.032Z,25.30
2018-12-31T11:24:31.851Z,24.60
2018-12-31T11:27:01.890Z,24.03
2018-12-31T11:29:31.942Z,24.70
2018-12-31T11:32:01.690Z,24.30
2018-12-31T11:34:31.764Z,25.03
2018-12-31T11:37:01.561Z,24.40
2018-12-31T11:39:31.801Z,25.83
2018-12-31T11:42:01.676Z,25.53
2018-12-31T11:44:31.695Z,24.67
2018-12-31T11:47:03.249Z,26.77
2018-12-31T11:49:33.293Z,25.57
2018-12-31T11:52:03.668Z,26.67
2018-12-31T11:54:33.730Z,27.73
2018-12-31T11:57:03.881Z,27.83
2018-12-31T11:59:33.997Z,28.13
2018-12-31T12:02:03.945Z,28.07
2018-12-31T12:04:33.901Z,27.80
2018-12-31T12:07:03.777Z,25.63
2018-12-31T12:09:35.011Z,26.03
2018-12-31T12:12:05.076Z,26.40
2018-12-31T12:14:36.102Z,26.93
2018-12-31T12:17:06.158Z,27.40
2018-12-31T12:19:36.256Z,26.87
2018-12-31T12:22:06.210Z,25.73
2018-12-31T12:24:36.274Z,25.40
2018-12-31T12:27:06.690Z,24.30
2018-12-31T12:29:36.700Z,27.10
2018-12-31T12:32:06.625Z,27.47
2018-12-31T12:34:36.979Z,24.40
2018-12-31T12:37:06.787Z,26.87
2018-12-31T12:39:36.750Z,26.40
2018-12-31T12:42:07.220Z,26.73
2018-12-31T12:44:37.073Z,26.77
2018-12-31T12:47:08.305Z,26.17
2018-12-31T12:49:38.729Z,26.13
2018-12-31T12:52:08.918Z,26.47
2018-12-31T12:54:38.838Z,25.33
2018-12-31T12:57:08.917Z,26.23
2018-12-31T12:59:38.888Z,25.93
2018-12-31T13:02:08.999Z,27.50
2018-12-31T13:04:38.894Z,27.60
2018-12-31T13:07:08.765Z,29.07
2018-12-31T13:09:39.510Z,27.93
2018-12-31T13:12:10.295Z,26.40
2018-12-31T13:14:40.453Z,27.10
2018-12-31T13:17:12.222Z,27.03
2018-12-31T13:19:42.793Z,27.83
2018-12-31T13:22:12.794Z,28.77
2018-12-31T13:24:42.954Z,27.37
2018-12-31T13:27:13.723Z,27.70
2018-12-31T13:29:43.817Z,28.07
2018-12-31T13:32:14.036Z,27.90
2018-12-31T13:34:44.338Z,27.87
2018-12-31T13:37:14.346Z,27.63
2018-12-31T13:39:44.823Z,28.83
2018-12-31T13:42:14.666Z,28.23
2018-12-31T13:44:44.815Z,26.97
2018-12-31T13:47:14.630Z,27.27
2018-12-31T13:49:44.543Z,28.67
2018-12-31T13:52:15.076Z,30.23
2018-12-31T13:54:44.854Z,29.10
2018-12-31T13:57:15.031Z,27.00
2018-12-31T13:59:45.086Z,27.93
2018-12-31T14:02:15.373Z,28.47
2018-12-31T14:04:45.369Z,27.27
2018-12-31T14:07:15.401Z,27.33
2018-12-31T14:09:46.029Z,29.37
2018-12-31T14:12:16.270Z,26.87
2018-12-31T14:14:46.144Z,28.40
2018-12-31T14:17:16.228Z,26.93
2018-12-31T14:19:46.334Z,27.07
2018-12-31T14:22:16.303Z,28.63
2018-12-31T14:24:46.151Z,29.03
2018-12-31T14:27:16.245Z,28.53
2018-12-31T14:29:46.117Z,27.80
2018-12-31T14:32:17.972Z,27.63
2018-12-31T14:34:47.794Z,27.23
2018-12-31T14:37:17.817Z,28.20
2018-12-31T14:39:48.785Z,27.33
2018-12-31T14:42:18.874Z,28.40
2018-12-31T14:44:48.889Z,26.40
2018-12-31T14:47:18.880Z,27.83
2018-12-31T14:49:48.789Z,28.47
2018-12-31T14:52:19.034Z,28.43
2018-12-31T14:54:49.317Z,28.30
2018-12-31T14:57:19.291Z,26.50
2018-12-31T14:59:49.411Z,27.73
2018-12-31T15:02:19.210Z,27.60
2018-12-31T15:04:49.033Z,27.47
2018-12-31T15:07:18.947Z,27.80
2018-12-31T15:09:48.893Z,27.07
2018-12-31T15:12:18.842Z,27.23
2018-12-31T15:14:48.795Z,27.23
2018-12-31T15:17:18.709Z,27.27
2018-12-31T15:19:48.572Z,26.97
2018-12-31T15:22:18.973Z,26.93
2018-12-31T15:24:48.680Z,24.80
2018-12-31T15:27:18.774Z,26.67
2018-12-31T15:29:49.532Z,25.67
2018-12-31T15:32:19.754Z,26.00
2018-12-31T15:34:49.701Z,26.00
2018-12-31T15:37:19.789Z,27.13
2018-12-31T15:39:49.670Z,24.33
2018-12-31T15:42:19.665Z,24.83
2018-12-31T15:44:49.594Z,25.83
2018-12-31T15:47:19.413Z,26.47
2018-12-31T15:49:49.448Z,26.57
2018-12-31T15:52:19.317Z,28.10
2018-12-31T15:54:51.028Z,27.83
2018-12-31T15:57:20.950Z,27.27
2018-12-31T15:59:51.300Z,27.10
2018-12-31T16:02:21.132Z,27.50
2018-12-31T16:04:51.158Z,28.00
2018-12-31T16:07:21.173Z,27.50
2018-12-31T16:09:51.028Z,28.23
2018-12-31T16:12:20.815Z,28.10
2018-12-31T16:14:50.825Z,29.27
2018-12-31T16:17:20.920Z,29.03
2018-12-31T16:19:50.962Z,29.13
2018-12-31T16:22:21.061Z,28.60
2018-12-31T16:24:51.108Z,29.43
2018-12-31T16:27:21.074Z,30.70
2018-12-31T16:29:51.440Z,30.03
2018-12-31T16:32:21.301Z,29.87
2018-12-31T16:34:51.261Z,31.20
2018-12-31T16:37:21.445Z,29.13
2018-12-31T16:39:51.773Z,28.70
2018-12-31T16:42:21.749Z,31.63
2018-12-31T16:44:51.642Z,31.27
2018-12-31T16:47:22.109Z,32.40
2018-12-31T16:49:53.004Z,31.33
2018-12-31T16:52:23.126Z,32.30
2018-12-31T16:54:53.051Z,30.13
2018-12-31T16:57:22.838Z,30.83
2018-12-31T16:59:52.891Z,30.57
2018-12-31T17:02:22.565Z,29.90
2018-12-31T17:04:55.590Z,30.33
2018-12-31T17:07:28.387Z,29.93
2018-12-31T17:09:57.370Z,30.10
2018-12-31T17:12:27.533Z,28.90
2018-12-31T17:14:58.414Z,30.60
2018-12-31T17:17:28.121Z,30.10
2018-12-31T17:19:58.407Z,29.10
2018-12-31T17:22:28.576Z,29.17
2018-12-31T17:24:58.783Z,29.33
2018-12-31T17:27:28.709Z,30.00
2018-12-31T17:29:58.714Z,29.73
2018-12-31T17:32:28.873Z,28.47
2018-12-31T17:34:59.084Z,27.83
2018-12-31T17:37:29.120Z,29.17
2018-12-31T17:39:59.447Z,28.73
2018-12-31T17:42:29.721Z,28.20
2018-12-31T17:44:59.631Z,28.50
2018-12-31T17:47:29.809Z,27.80
2018-12-31T17:49:59.905Z,28.97
2018-12-31T17:52:29.773Z,27.70
2018-12-31T17:54:59.751Z,28.07
2018-12-31T17:57:29.790Z,27.43
2018-12-31T17:59:59.704Z,27.63
2018-12-31T18:02:30.213Z,27.70
2018-12-31T18:05:02.361Z,28.27
2018-12-31T18:07:31.914Z,27.77
2018-12-31T18:10:02.221Z,26.83
2018-12-31T18:12:32.233Z,27.53
2018-12-31T18:15:02.246Z,27.90
2018-12-31T18:17:32.629Z,27.40
2018-12-31T18:20:04.579Z,27.03
2018-12-31T18:22:34.446Z,27.40
2018-12-31T18:25:04.992Z,30.00
2018-12-31T18:27:35.039Z,28.83
2018-12-31T18:30:05.457Z,27.77
2018-12-31T18:32:35.398Z,28.60
2018-12-31T18:35:05.242Z,29.50
2018-12-31T18:37:41.689Z,27.07
2018-12-31T18:40:07.201Z,30.20
2018-12-31T18:42:37.213Z,30.00
2018-12-31T18:45:07.284Z,30.57
2018-12-31T18:47:37.586Z,31.53
2018-12-31T18:50:07.568Z,33.50
2018-12-31T18:52:37.398Z,32.80
2018-12-31T18:55:07.374Z,33.13
2018-12-31T18:57:38.934Z,33.17
2018-12-31T19:00:09.789Z,32.40
2018-12-31T19:02:39.733Z,30.97
2018-12-31T19:05:11.197Z,32.40
2018-12-31T19:07:41.377Z,33.77
2018-12-31T19:10:11.301Z,33.47
2018-12-31T19:12:41.228Z,33.23
2018-12-31T19:15:11.042Z,32.97
2018-12-31T19:17:40.937Z,33.93
2018-12-31T19:20:11.171Z,32.20
2018-12-31T19:22:41.138Z,33.67
2018-12-31T19:25:11.411Z,32.57
2018-12-31T19:27:41.619Z,32.30
2018-12-31T19:30:11.705Z,32.63
2018-12-31T19:32:43.388Z,32.67
2018-12-31T19:35:13.872Z,33.47
2018-12-31T19:37:43.730Z,33.60
2018-12-31T19:40:14.011Z,34.47
2018-12-31T19:42:44.209Z,33.53
2018-12-31T19:45:14.291Z,34.60
2018-12-31T19:47:44.251Z,36.57
2018-12-31T19:50:14.117Z,36.73
2018-12-31T19:52:47.194Z,34.03
2018-12-31T19:55:17.270Z,34.93
2018-12-31T19:57:47.456Z,36.67
2018-12-31T20:00:17.882Z,34.93
2018-12-31T20:02:47.913Z,35.93
2018-12-31T20:05:18.067Z,36.17
2018-12-31T20:07:48.146Z,37.60
2018-12-31T20:10:18.113Z,38.40
2018-12-31T20:12:48.185Z,39.40
2018-12-31T20:15:18.446Z,37.60
2018-12-31T20:17:49.451Z,36.70
2018-12-31T20:20:19.834Z,38.27
2018-12-31T20:22:49.785Z,39.40
2018-12-31T20:25:19.809Z,39.13
2018-12-31T20:27:51.546Z,38.63
2018-12-31T20:30:22.347Z,39.47
2018-12-31T20:32:52.469Z,39.97
2018-12-31T20:35:22.297Z,39.57
2018-12-31T20:37:52.218Z,40.97
2018-12-31T20:40:21.977Z,47.83
2018-12-31T20:42:51.972Z,41.53
2018-12-31T20:45:26.665Z,43.13
2018-12-31T20:48:01.783Z,41.03
2018-12-31T20:50:28.338Z,41.10
2018-12-31T20:52:58.293Z,40.40
2018-12-31T20:55:28.363Z,39.43
2018-12-31T20:57:58.312Z,39.80
2018-12-31T21:00:28.185Z,36.97
2018-12-31T21:02:58.109Z,37.33
2018-12-31T21:05:28.273Z,37.10
2018-12-31T21:07:58.496Z,38.20
2018-12-31T21:10:28.312Z,38.03
2018-12-31T21:12:58.183Z,38.23
2018-12-31T21:15:28.269Z,41.27
2018-12-31T21:17:58.449Z,40.20
2018-12-31T21:20:28.718Z,40.20
2018-12-31T21:22:59.115Z,39.17
2018-12-31T21:25:29.030Z,40.87
2018-12-31T21:27:59.149Z,40.07
2018-12-31T21:30:28.998Z,38.73
2018-12-31T21:32:58.821Z,40.17
2018-12-31T21:35:28.876Z,39.17
2018-12-31T21:37:59.417Z,38.87
2018-12-31T21:40:29.167Z,38.43
2018-12-31T21:42:59.434Z,39.80
2018-12-31T21:45:29.381Z,39.10
2018-12-31T21:47:59.352Z,37.33
2018-12-31T21:50:29.322Z,37.67
2018-12-31T21:52:59.189Z,37.63
2018-12-31T21:55:29.305Z,36.23
2018-12-31T21:57:59.304Z,36.90
2018-12-31T22:00:29.183Z,38.47
2018-12-31T22:02:58.996Z,44.23
2018-12-31T22:05:29.173Z,36.67
2018-12-31T22:07:59.284Z,35.00
2018-12-31T22:10:29.474Z,37.30
2018-12-31T22:12:59.658Z,37.53
2018-12-31T22:15:29.765Z,36.50
2018-12-31T22:17:59.558Z,36.70
2018-12-31T22:20:29.450Z,33.87
2018-12-31T22:23:01.067Z,33.10
2018-12-31T22:25:30.804Z,32.77
2018-12-31T22:28:00.834Z,35.70
2018-12-31T22:30:30.755Z,36.70
2018-12-31T22:33:00.522Z,35.63
2018-12-31T22:35:31.033Z,34.30
2018-12-31T22:38:00.810Z,32.07
2018-12-31T22:40:30.660Z,32.60
2018-12-31T22:43:01.495Z,29.00
2018-12-31T22:45:31.489Z,31.60
2018-12-31T22:48:01.714Z,30.67
2018-12-31T22:50:32.130Z,31.00
2018-12-31T22:53:02.240Z,31.63
2018-12-31T22:55:32.121Z,34.10
2018-12-31T22:58:02.117Z,31.33
2018-12-31T23:00:33.155Z,32.77
2018-12-31T23:03:03.005Z,35.50
2018-12-31T23:05:35.999Z,38.80
2018-12-31T23:08:06.094Z,50.23
2018-12-31T23:10:36.216Z,79.43
2018-12-31T23:13:05.999Z,118.67
2018-12-31T23:15:37.377Z,137.87
2018-12-31T23:18:07.854Z,120.70
2018-12-31T23:20:38.023Z,147.73
2018-12-31T23:23:07.921Z,203.83
2018-12-31T23:25:37.968Z,185.90
2018-12-31T23:28:08.274Z,211.13
2018-12-31T23:30:38.540Z,180.77
2018-12-31T23:33:08.277Z,185.77
2018-12-31T23:35:38.090Z,189.23
2018-12-31T23:38:08.305Z,174.27
2018-12-31T23:40:38.432Z,130.50
2018-12-31T23:43:08.244Z,137.67
2018-12-31T23:45:38.492Z,123.23
2018-12-31T23:48:08.458Z,104.93
2018-12-31T23:50:38.368Z,111.50
2018-12-31T23:53:08.343Z,117.03
2018-12-31T23:55:38.220Z,118.17
2018-12-31T23:58:08.039Z,107.73
